.
WxDataArchive / Data Records for 2016-04-12
2016-04-11 April 2016 2016-04-13

Data Records for Tuesday, 12 April 2016

Time	Temp	Chill	HIndex	Humid	Dewpt	 Wind 	HiWind	WindDir	Rain 	Barom
-----	----	-----	------	-----	-----	------	------	-------	-----	-----
00:00	33.7	33.7	33.7	80	28.2	0	0	---	0.00	30.054 
00:05	33.4	33.4	33.4	81	28.2	0	0	---	0.00	30.054 
00:10	33.2	33.2	33.2	81	28.0	0	0	---	0.00	30.054 
00:15	33.1	33.1	33.1	81	27.9	0	0	---	0.00	30.062 
00:20	32.9	32.9	32.9	81	27.7	0	0	---	0.00	30.062 
00:25	32.8	32.8	32.8	82	27.9	0	0	---	0.00	30.062 
00:30	32.7	32.7	32.7	82	27.8	0	0	---	0.00	30.066 
00:35	32.5	32.5	32.5	83	27.9	0	0	---	0.00	30.066 
00:40	32.5	32.5	32.5	83	27.9	0	0	---	0.00	30.066 
00:45	32.8	32.8	32.8	83	28.2	0	1	270	0.00	30.079 
00:50	33.5	33.5	33.5	82	28.6	0	1	270	0.00	30.079 
00:55	34.1	34.1	34.1	80	28.6	0	1	270	0.00	30.079 
01:00	34.6	34.6	34.6	77	28.1	0	1	270	0.00	30.082 
01:05	34.9	34.9	34.9	75	27.8	0	1	270	0.00	30.082 
01:10	35.2	35.2	35.2	73	27.4	0	1	270	0.00	30.082 
01:15	35.3	35.3	35.3	71	26.9	0	2	270	0.00	30.087 
01:20	35.5	35.5	35.5	69	26.4	0	2	270	0.00	30.087 
01:25	35.6	35.6	35.6	67	25.7	0	2	270	0.00	30.087 
01:30	35.6	35.6	35.6	67	25.7	0	1	270	0.00	30.094 
01:35	35.5	35.5	35.5	66	25.3	0	1	270	0.00	30.094 
01:40	35.5	35.5	35.5	66	25.3	0	2	270	0.00	30.094 
01:45	35.5	35.5	35.5	65	24.9	0	1	270	0.00	30.101 
01:50	35.3	35.3	35.3	65	24.7	0	1	270	0.00	30.101 
01:55	35.3	35.3	35.3	65	24.7	0	1	270	0.00	30.101 
02:00	35.2	35.2	35.2	65	24.6	0	2	270	0.00	30.108 
02:05	35.0	35.0	35.0	65	24.4	0	2	270	0.00	30.108 
02:10	35.0	35.0	35.0	65	24.4	0	4	270	0.00	30.108 
02:15	35.0	35.0	35.0	65	24.4	0	4	292	0.00	30.113 
02:20	34.9	34.9	34.9	65	24.3	0	1	292	0.00	30.113 
02:25	34.7	34.7	34.7	64	23.8	0	1	292	0.00	30.113 
02:30	34.6	34.6	34.6	64	23.7	0	1	292	0.00	30.113 
02:35	34.6	34.6	34.6	64	23.7	0	1	292	0.00	30.113 
02:40	34.4	34.4	34.4	64	23.5	0	2	292	0.00	30.113 
02:45	34.4	34.4	34.4	64	23.5	0	2	292	0.00	30.123 
02:50	34.4	34.4	34.4	63	23.1	0	4	292	0.00	30.123 
02:55	34.4	34.4	34.4	63	23.1	0	2	292	0.00	30.123 
03:00	34.4	34.4	34.4	63	23.1	0	1	292	0.00	30.126 
03:05	34.4	34.4	34.4	64	23.5	0	2	292	0.00	30.126 
03:10	34.3	34.3	34.3	64	23.4	0	1	292	0.00	30.126 
03:15	34.1	34.1	34.1	64	23.2	0	1	292	0.00	30.129 
03:20	34.0	34.0	34.0	64	23.1	0	0	---	0.00	30.129 
03:25	33.8	33.8	33.8	65	23.3	0	1	292	0.00	30.129 
03:30	33.8	33.8	33.8	65	23.3	0	0	---	0.00	30.141 
03:35	33.5	33.5	33.5	65	23.0	0	0	---	0.00	30.141 
03:40	33.4	33.4	33.4	66	23.3	0	1	292	0.00	30.141 
03:45	33.4	33.4	33.4	66	23.3	0	0	---	0.00	30.144 
03:50	33.2	33.2	33.2	66	23.1	0	0	---	0.00	30.144 
03:55	33.1	33.1	33.1	66	23.0	0	0	---	0.00	30.144 
04:00	33.1	33.1	33.1	67	23.4	0	1	292	0.00	30.148 
04:05	33.1	33.1	33.1	67	23.4	0	1	292	0.00	30.148 
04:10	33.1	33.1	33.1	67	23.4	0	0	---	0.00	30.148 
04:15	32.9	32.9	32.9	67	23.2	0	1	292	0.00	30.157 
04:20	32.8	32.8	32.8	67	23.1	0	0	---	0.00	30.157 
04:25	32.7	32.7	32.7	68	23.3	0	0	---	0.00	30.157 
04:30	32.5	32.5	32.5	68	23.1	0	0	---	0.00	30.159 
04:35	32.4	32.4	32.4	69	23.4	0	0	---	0.00	30.159 
04:40	32.2	32.2	32.2	69	23.2	0	0	---	0.00	30.159 
04:45	32.1	32.1	32.1	69	23.1	0	0	---	0.00	30.164 
04:50	31.8	31.8	31.8	70	23.2	0	1	292	0.00	30.164 
04:55	31.8	31.8	31.8	70	23.2	0	0	---	0.00	30.164 
05:00	31.8	31.8	31.8	70	23.2	0	0	---	0.00	30.165 
05:05	31.8	31.8	31.8	70	23.2	0	1	292	0.00	30.165 
05:10	31.9	31.9	31.9	70	23.2	0	1	292	0.00	30.165 
05:15	32.1	32.1	32.1	70	23.4	0	1	292	0.00	30.170 
05:20	32.1	32.1	32.1	69	23.1	0	2	292	0.00	30.170 
05:25	32.2	32.2	32.2	69	23.2	0	0	---	0.00	30.170 
05:30	32.2	32.2	32.2	69	23.2	0	1	292	0.00	30.178 
05:35	32.2	32.2	32.2	69	23.2	0	1	292	0.00	30.178 
05:40	32.1	32.1	32.1	69	23.1	0	1	292	0.00	30.178 
05:45	32.1	32.1	32.1	69	23.1	0	1	292	0.00	30.185 
05:50	32.1	32.1	32.1	69	23.1	0	1	292	0.00	30.185 
05:55	31.9	31.9	31.9	69	22.9	0	0	---	0.00	30.185 
06:00	31.9	31.9	31.9	69	22.9	0	1	292	0.00	30.194 
06:05	31.8	31.8	31.8	70	23.2	0	1	292	0.00	30.194 
06:10	31.8	31.8	31.8	70	23.2	0	0	---	0.00	30.194 
06:15	31.8	31.8	31.8	70	23.2	0	2	292	0.00	30.199 
06:20	31.6	31.6	31.6	70	23.0	0	0	---	0.00	30.199 
06:25	31.5	31.5	31.5	70	22.9	0	1	292	0.00	30.199 
06:30	31.3	31.3	31.3	71	23.0	0	1	292	0.00	30.212 
06:35	31.3	31.3	31.3	71	23.0	0	0	---	0.00	30.212 
06:40	31.2	31.2	31.2	71	22.9	0	0	---	0.00	30.212 
06:45	31.0	31.0	31.0	72	23.1	0	0	---	0.00	30.220 
06:50	30.9	30.9	30.9	72	23.0	0	0	---	0.00	30.220 
06:55	30.9	30.9	30.9	72	23.0	0	0	---	0.00	30.220 
07:00	30.9	30.9	30.9	72	23.0	0	0	---	0.00	30.227 
07:05	30.7	30.7	30.7	72	22.8	0	1	292	0.00	30.227 
07:10	30.7	30.7	30.7	72	22.8	0	0	---	0.00	30.227 
07:15	30.9	30.9	30.9	72	23.0	0	0	---	0.00	30.235 
07:20	30.7	30.7	30.7	72	22.8	0	0	---	0.00	30.235 
07:25	30.7	30.7	30.7	72	22.8	0	0	---	0.00	30.235 
07:30	30.9	30.9	30.9	73	23.3	0	0	---	0.00	30.244 
07:35	30.9	30.9	30.9	73	23.3	0	0	---	0.00	30.244 
07:40	30.9	30.9	30.9	73	23.3	0	0	---	0.00	30.244 
07:45	31.0	31.0	31.0	73	23.4	0	0	---	0.00	30.250 
07:50	31.3	31.3	31.3	73	23.7	0	0	---	0.00	30.250 
07:55	31.8	31.8	31.8	73	24.1	0	0	---	0.00	30.250 
08:00	32.2	32.2	32.2	72	24.2	0	0	---	0.00	30.257 
08:05	32.7	32.7	32.7	71	24.4	0	1	292	0.00	30.257 
08:10	33.1	33.1	33.1	69	24.1	0	2	292	0.00	30.257 
08:15	33.5	33.5	33.5	68	24.1	0	2	292	0.00	30.264 
08:20	34.1	34.1	34.1	68	24.7	1	2	292	0.00	30.264 
08:25	34.6	34.6	34.6	66	24.4	1	4	315	0.00	30.264 
08:30	35.0	35.0	35.0	65	24.4	1	4	292	0.00	30.269 
08:35	35.5	35.5	35.5	64	24.5	1	5	315	0.00	30.269 
08:40	35.9	35.9	35.9	63	24.5	1	5	315	0.00	30.269 
08:45	36.3	36.3	36.3	62	24.5	1	5	315	0.00	30.275 
08:50	36.6	36.6	36.6	62	24.8	2	5	292	0.00	30.275 
08:55	36.9	36.9	36.9	61	24.7	2	6	292	0.00	30.275 
09:00	37.2	37.2	37.2	61	25.0	1	6	292	0.00	30.277 
09:05	37.5	37.5	37.5	60	24.9	2	6	270	0.00	30.277 
09:10	37.6	37.6	37.6	59	24.6	2	5	338	0.00	30.277 
09:15	37.9	37.9	37.9	60	25.3	1	4	338	0.00	30.285 
09:20	38.2	38.2	38.2	58	24.7	2	7	292	0.00	30.285 
09:25	38.2	38.2	38.2	58	24.7	2	7	292	0.00	30.285 
09:30	38.5	38.5	38.5	58	25.0	1	4	270	0.00	30.288 
09:35	38.9	38.9	38.9	59	25.8	1	5	338	0.00	30.288 
09:40	39.2	39.2	39.2	57	25.3	1	3	292	0.00	30.288 
09:45	39.5	39.5	39.5	57	25.5	2	7	292	0.00	30.292 
09:50	39.5	39.5	39.5	54	24.2	2	11	315	0.00	30.292 
09:55	39.6	39.6	39.6	54	24.3	2	5	315	0.00	30.292 
10:00	39.9	39.9	39.9	56	25.5	1	4	292	0.00	30.294 
10:05	40.1	40.1	40.1	52	23.9	2	6	0	0.00	30.294 
10:10	40.2	40.2	40.2	52	24.0	2	7	292	0.00	30.294 
10:15	40.3	40.3	40.3	55	25.4	3	10	292	0.00	30.303 
10:20	40.5	40.5	40.5	50	23.3	2	9	292	0.00	30.303 
10:25	40.9	40.9	40.9	51	24.2	2	5	315	0.00	30.303 
10:30	41.2	41.2	41.2	51	24.5	2	5	338	0.00	30.308 
10:35	41.1	41.1	41.1	49	23.4	3	7	292	0.00	30.308 
10:40	40.9	40.9	40.9	49	23.2	3	7	292	0.00	30.308 
10:45	41.2	41.2	41.2	49	23.5	2	6	292	0.00	30.310 
10:50	41.6	41.6	41.6	50	24.4	2	6	315	0.00	30.310 
10:55	42.1	42.1	42.1	50	24.8	2	5	315	0.00	30.310 
11:00	42.2	42.2	42.2	47	23.4	2	7	292	0.00	30.315 
11:05	42.5	42.5	42.5	49	24.7	2	7	292	0.00	30.315 
11:10	42.5	42.5	42.5	46	23.2	3	9	270	0.00	30.315 
11:15	42.6	42.6	42.6	48	24.3	1	4	315	0.00	30.325 
11:20	42.9	42.9	42.9	46	23.6	2	6	292	0.00	30.325 
11:25	43.1	43.1	43.1	46	23.7	2	7	270	0.00	30.325 
11:30	43.2	43.2	43.2	46	23.8	2	7	292	0.00	30.328 
11:35	43.3	43.3	43.3	43	22.3	2	7	315	0.00	30.328 
11:40	43.3	43.3	43.3	43	22.3	3	7	292	0.00	30.328 
11:45	43.5	43.5	43.5	46	24.1	2	5	292	0.00	30.329 
11:50	43.8	43.8	43.8	44	23.3	3	7	0	0.00	30.329 
11:55	43.9	43.9	43.9	44	23.4	2	9	292	0.00	30.329 
12:00	44.1	44.1	44.1	46	24.7	2	9	315	0.00	30.327 
12:05	44.1	44.1	44.1	44	23.6	3	10	292	0.00	30.327 
12:10	44.3	44.3	44.3	45	24.3	1	3	315	0.00	30.327 
12:15	44.5	44.5	44.5	44	24.0	2	6	292	0.00	30.325 
12:20	45.1	45.1	45.1	49	27.1	1	4	292	0.00	30.325 
12:25	44.9	44.9	44.9	40	22.1	3	10	292	0.00	30.325 
12:30	44.6	44.6	44.6	43	23.5	2	5	292	0.00	30.323 
12:35	45.1	45.1	45.1	43	24.0	1	4	315	0.00	30.323 
12:40	45.2	43.3	45.2	42	23.5	4	13	292	0.00	30.323 
12:45	44.9	43.0	44.9	42	23.2	4	11	338	0.00	30.325 
12:50	45.2	45.2	45.2	45	25.1	1	6	292	0.00	30.325 
12:55	45.7	45.7	45.7	42	23.9	1	4	292	0.00	30.325 
13:00	46.2	46.2	46.2	46	26.6	1	4	292	0.00	30.324 
13:05	46.1	46.1	46.1	43	24.9	3	7	292	0.00	30.324 
13:10	46.2	46.2	46.2	46	26.6	2	6	292	0.00	30.324 
13:15	46.2	46.2	46.2	43	25.0	2	9	0	0.00	30.323 
13:20	46.0	46.0	46.0	43	24.8	2	6	338	0.00	30.323 
13:25	46.2	46.2	46.2	42	24.4	2	6	292	0.00	30.323 
13:30	46.1	46.1	46.1	42	24.3	2	6	338	0.00	30.322 
13:35	46.2	46.2	46.2	45	26.0	1	5	338	0.00	30.322 
13:40	46.7	46.7	46.7	43	25.4	1	4	45	0.00	30.322 
13:45	47.0	47.0	47.0	43	25.7	1	4	292	0.00	30.316 
13:50	47.3	47.3	47.3	46	27.6	1	4	338	0.00	30.316 
13:55	47.4	47.4	47.4	42	25.5	2	5	315	0.00	30.316 
14:00	47.4	47.4	47.4	42	25.5	2	5	292	0.00	30.309 
14:05	47.3	47.3	47.3	43	25.9	1	4	0	0.00	30.309 
14:10	47.4	47.4	47.4	41	24.9	2	9	292	0.00	30.309 
14:15	47.6	47.6	47.6	41	25.1	2	5	248	0.00	30.311 
14:20	48.0	48.0	48.0	44	27.1	1	4	270	0.00	30.311 
14:25	48.6	48.6	48.6	43	27.1	0	4	315	0.00	30.311 
14:30	48.6	48.6	48.6	41	26.0	2	7	292	0.00	30.309 
14:35	48.3	48.3	48.3	39	24.5	1	5	338	0.00	30.309 
14:40	48.6	48.6	48.6	42	26.6	1	4	68	0.00	30.309 
14:45	48.8	48.8	48.8	40	25.6	1	4	68	0.00	30.309 
14:50	49.1	49.1	49.1	42	27.0	2	5	292	0.00	30.309 
14:55	48.8	48.8	48.8	39	25.0	2	5	338	0.00	30.309 
15:00	48.8	48.8	48.8	46	28.9	0	2	338	0.00	30.309 
15:05	49.1	49.1	49.1	41	26.4	1	5	270	0.00	30.309 
15:10	49.5	49.5	49.5	41	26.8	1	4	292	0.00	30.309 
15:15	49.4	49.4	49.4	38	24.9	2	9	292	0.00	30.310 
15:20	49.4	49.4	49.4	39	25.5	0	2	292	0.00	30.310 
15:25	49.4	49.4	49.4	37	24.2	1	7	315	0.00	30.310 
15:30	49.1	49.1	49.1	38	24.6	2	6	292	0.00	30.310 
15:35	49.2	49.2	49.2	38	24.7	1	4	315	0.00	30.310 
15:40	49.4	49.4	49.4	39	25.5	1	5	292	0.00	30.310 
15:45	49.5	49.5	49.5	39	25.6	1	6	315	0.00	30.306 
15:50	49.6	49.6	49.6	37	24.4	0	2	315	0.00	30.306 
15:55	49.9	49.9	49.9	37	24.7	0	3	315	0.00	30.306 
16:00	50.1	50.1	50.1	39	26.1	0	2	68	0.00	30.300 
16:05	50.1	50.1	50.1	37	24.9	0	2	68	0.00	30.300 
16:10	49.9	49.9	49.9	35	23.3	1	4	292	0.00	30.300 
16:15	49.9	49.9	49.9	35	23.3	1	4	292	0.00	30.303 
16:20	49.8	49.8	49.8	35	23.3	1	3	292	0.00	30.303 
16:25	50.2	50.2	50.2	38	25.6	1	4	292	0.00	30.303 
16:30	49.9	49.9	49.9	35	23.3	2	5	338	0.00	30.300 
16:35	49.8	49.8	49.8	36	23.9	1	4	292	0.00	30.300 
16:40	49.8	49.8	49.8	35	23.3	1	4	0	0.00	30.300 
16:45	49.5	49.5	49.5	34	22.3	2	5	292	0.00	30.296 
16:50	49.5	49.5	49.5	36	23.7	1	4	292	0.00	30.296 
16:55	49.6	49.6	49.6	34	22.4	1	4	270	0.00	30.296 
17:00	49.6	49.6	49.6	35	23.1	1	5	292	0.00	30.296 
17:05	49.6	49.6	49.6	35	23.1	1	3	292	0.00	30.296 
17:10	49.8	49.8	49.8	36	23.9	1	4	292	0.00	30.296 
17:15	50.2	50.2	50.2	35	23.6	2	5	270	0.00	30.293 
17:20	50.2	50.2	50.2	33	22.2	1	5	270	0.00	30.293 
17:25	49.9	49.9	49.9	33	22.0	1	3	270	0.00	30.293 
17:30	49.9	49.9	49.9	33	22.0	1	3	270	0.00	30.293 
17:35	49.9	49.9	49.9	34	22.7	2	5	270	0.00	30.293 
17:40	50.2	50.2	50.2	36	24.3	1	5	292	0.00	30.293 
17:45	50.4	50.4	50.4	33	22.4	0	5	292	0.00	30.293 
17:50	50.5	50.5	50.5	34	23.2	0	1	292	0.00	30.293 
17:55	50.8	50.8	50.8	35	24.1	0	3	292	0.00	30.293 
18:00	50.8	50.8	50.8	34	23.5	1	6	338	0.00	30.293 
18:05	50.7	50.7	50.7	36	24.7	0	2	45	0.00	30.293 
18:10	50.5	50.5	50.5	34	23.2	0	2	45	0.00	30.293 
18:15	50.4	50.4	50.4	34	23.1	1	5	68	0.00	30.300 
18:20	49.9	49.9	49.9	35	23.3	1	3	68	0.00	30.300 
18:25	49.8	49.8	49.8	36	23.9	0	2	68	0.00	30.300 
18:30	49.8	49.8	49.8	35	23.3	0	2	68	0.00	30.300 
18:35	49.6	49.6	49.6	36	23.8	0	3	68	0.00	30.300 
18:40	49.5	49.5	49.5	35	23.0	1	3	22	0.00	30.300 
18:45	49.4	49.4	49.4	35	22.9	0	3	22	0.00	30.305 
18:50	49.4	49.4	49.4	35	22.9	0	1	22	0.00	30.305 
18:55	49.4	49.4	49.4	36	23.6	0	0	---	0.00	30.305 
19:00	49.4	49.4	49.4	35	22.9	0	2	22	0.00	30.306 
19:05	49.2	49.2	49.2	35	22.7	0	3	22	0.00	30.306 
19:10	49.1	49.1	49.1	35	22.6	0	1	22	0.00	30.306 
19:15	48.9	48.9	48.9	34	21.8	0	1	22	0.00	30.307 
19:20	48.9	48.9	48.9	37	23.8	0	1	22	0.00	30.307 
19:25	48.8	48.8	48.8	37	23.7	0	1	22	0.00	30.307 
19:30	48.5	48.5	48.5	35	22.1	0	0	---	0.00	30.308 
19:35	48.3	48.3	48.3	37	23.3	0	1	22	0.00	30.308 
19:40	48.2	48.2	48.2	37	23.2	0	0	---	0.00	30.308 
19:45	47.9	47.9	47.9	37	22.9	0	1	22	0.00	30.309 
19:50	47.7	47.7	47.7	36	22.1	0	0	---	0.00	30.309 
19:55	47.4	47.4	47.4	38	23.1	0	0	---	0.00	30.309 
20:00	47.3	47.3	47.3	39	23.6	0	0	---	0.00	30.311 
20:05	47.1	47.1	47.1	40	24.0	0	0	---	0.00	30.311 
20:10	46.8	46.8	46.8	42	24.9	0	0	---	0.00	30.311 
20:15	46.4	46.4	46.4	42	24.6	0	1	22	0.00	30.304 
20:20	46.0	46.0	46.0	43	24.8	0	0	---	0.00	30.304 
20:25	45.7	45.7	45.7	43	24.5	0	0	---	0.00	30.304 
20:30	45.2	45.2	45.2	44	24.6	0	0	---	0.00	30.306 
20:35	44.8	44.8	44.8	45	24.8	0	0	---	0.00	30.306 
20:40	44.3	44.3	44.3	46	24.8	0	0	---	0.00	30.306 
20:45	43.9	43.9	43.9	47	25.0	0	0	---	0.00	30.310 
20:50	43.5	43.5	43.5	48	25.1	0	0	---	0.00	30.310 
20:55	43.2	43.2	43.2	49	25.3	0	0	---	0.00	30.310 
21:00	42.9	42.9	42.9	51	26.0	0	0	---	0.00	30.311 
21:05	42.6	42.6	42.6	52	26.2	0	0	---	0.00	30.311 
21:10	42.5	42.5	42.5	53	26.6	0	0	---	0.00	30.311 
21:15	42.2	42.2	42.2	53	26.3	0	0	---	0.00	30.312 
21:20	41.9	41.9	41.9	53	26.0	0	0	---	0.00	30.312 
21:25	41.5	41.5	41.5	53	25.7	0	0	---	0.00	30.312 
21:30	41.2	41.2	41.2	54	25.8	0	0	---	0.00	30.315 
21:35	40.9	40.9	40.9	54	25.6	0	0	---	0.00	30.315 
21:40	40.6	40.6	40.6	55	25.7	0	0	---	0.00	30.315 
21:45	40.5	40.5	40.5	57	26.5	0	0	---	0.00	30.320 
21:50	40.3	40.3	40.3	58	26.7	0	0	---	0.00	30.320 
21:55	40.1	40.1	40.1	58	26.5	0	0	---	0.00	30.320 
22:00	39.8	39.8	39.8	59	26.7	0	0	---	0.00	30.324 
22:05	39.6	39.6	39.6	59	26.5	0	0	---	0.00	30.324 
22:10	39.3	39.3	39.3	60	26.6	0	0	---	0.00	30.324 
22:15	39.1	39.1	39.1	61	26.8	0	0	---	0.00	30.325 
22:20	38.8	38.8	38.8	62	26.9	0	0	---	0.00	30.325 
22:25	38.6	38.6	38.6	62	26.7	0	0	---	0.00	30.325 
22:30	38.5	38.5	38.5	63	27.0	0	0	---	0.00	30.326 
22:35	38.2	38.2	38.2	64	27.1	0	0	---	0.00	30.326 
22:40	38.0	38.0	38.0	64	26.9	0	0	---	0.00	30.326 
22:45	37.8	37.8	37.8	65	27.1	0	0	---	0.00	30.329 
22:50	37.6	37.6	37.6	65	26.9	0	0	---	0.00	30.329 
22:55	37.5	37.5	37.5	65	26.8	0	0	---	0.00	30.329 
23:00	37.2	37.2	37.2	65	26.5	0	0	---	0.00	30.332 
23:05	36.9	36.9	36.9	66	26.6	0	0	---	0.00	30.332 
23:10	36.6	36.6	36.6	66	26.3	0	0	---	0.00	30.332 
23:15	36.5	36.5	36.5	67	26.6	0	0	---	0.00	30.329 
23:20	36.2	36.2	36.2	68	26.7	0	0	---	0.00	30.329 
23:25	36.0	36.0	36.0	69	26.8	0	0	---	0.00	30.329 
23:30	35.9	35.9	35.9	69	26.7	0	0	---	0.00	30.334 
23:35	35.8	35.8	35.8	69	26.6	0	0	---	0.00	30.334 
23:40	35.6	35.6	35.6	70	26.8	0	0	---	0.00	30.334 
23:45	35.6	35.6	35.6	71	27.1	0	0	---	0.00	30.336 
23:50	35.5	35.5	35.5	72	27.4	0	0	---	0.00	30.336 
23:55	35.3	35.3	35.3	73	27.5	0	0	---	0.00	30.336 

CoCoRaHS
IN-AL-39
A2 Web Hosting
Creative Commons License
GoDaddy
search engine by freefind advanced

loaded 2018-11-17 12:25:13 • last modified 2010-11-18 10:43:29
Privacy PolicyDisclaimer
• wx.awcolley.com is powered by PmWiki v.2002016 •
• all content (unless otherwise noted) © 2018 A W Colley